createdAt,value
2022-10-11T00:01:59.362Z,4.37
2022-10-11T00:04:26.143Z,5.00
2022-10-11T00:06:53.125Z,3.80
2022-10-11T00:09:19.958Z,4.20
2022-10-11T00:11:47.927Z,6.30
2022-10-11T00:14:14.714Z,5.17
2022-10-11T00:16:44.457Z,5.00
2022-10-11T00:19:11.728Z,5.23
2022-10-11T00:21:38.650Z,5.97
2022-10-11T00:24:06.759Z,4.87
2022-10-11T00:26:33.581Z,4.40
2022-10-11T00:29:00.524Z,4.30
2022-10-11T00:31:29.930Z,4.27
2022-10-11T00:34:00.474Z,5.70
2022-10-11T00:36:27.775Z,5.97
2022-10-11T00:38:55.995Z,6.37
2022-10-11T00:41:23.218Z,5.77
2022-10-11T00:44:08.531Z,4.90
2022-10-11T00:46:35.772Z,5.53
2022-10-11T00:49:07.992Z,5.47
2022-10-11T00:51:47.642Z,6.23
2022-10-11T00:54:17.614Z,5.27
2022-10-11T00:56:46.029Z,5.20
2022-10-11T00:59:15.104Z,5.30
2022-10-11T01:01:42.764Z,4.47
2022-10-11T01:04:09.976Z,5.23
2022-10-11T01:06:37.608Z,5.93
2022-10-11T01:09:05.255Z,5.37
2022-10-11T01:11:32.524Z,4.83
2022-10-11T01:13:59.620Z,5.17
2022-10-11T01:16:33.057Z,4.47
2022-10-11T01:19:03.197Z,4.40
2022-10-11T01:21:30.996Z,3.80
2022-10-11T01:24:36.562Z,4.50
2022-10-11T01:27:09.663Z,4.40
2022-10-11T01:29:45.740Z,3.97
2022-10-11T01:32:18.179Z,5.37
2022-10-11T01:34:55.897Z,4.70
2022-10-11T01:37:30.232Z,5.70
2022-10-11T01:40:00.543Z,4.40
2022-10-11T01:42:28.917Z,4.57
2022-10-11T01:44:57.324Z,4.70
2022-10-11T01:47:27.899Z,4.80
2022-10-11T01:49:59.929Z,4.77
2022-10-11T01:52:32.326Z,4.57
2022-10-11T01:55:14.836Z,4.87
2022-10-11T01:57:56.962Z,4.27
2022-10-11T02:00:25.906Z,3.90
2022-10-11T02:03:11.744Z,5.30
2022-10-11T02:05:45.180Z,5.10
2022-10-11T02:08:18.448Z,4.37
2022-10-11T02:10:48.783Z,4.40
2022-10-11T02:13:22.219Z,4.40
2022-10-11T02:15:50.503Z,4.40
2022-10-11T02:18:22.841Z,4.23
2022-10-11T02:20:51.197Z,4.20
2022-10-11T02:23:21.260Z,4.83
2022-10-11T02:25:48.691Z,4.57
2022-10-11T02:28:18.600Z,4.23
2022-10-11T02:30:46.738Z,4.70
2022-10-11T02:33:15.091Z,4.80
2022-10-11T02:35:45.051Z,4.93
2022-10-11T02:38:23.686Z,4.80
2022-10-11T02:40:52.868Z,4.97
2022-10-11T02:43:24.165Z,4.60
2022-10-11T02:45:51.317Z,4.67
2022-10-11T02:48:18.736Z,5.07
2022-10-11T02:50:45.956Z,4.80
2022-10-11T02:53:13.068Z,5.13
2022-10-11T02:55:40.457Z,6.43
2022-10-11T02:58:07.638Z,5.50
2022-10-11T03:00:34.865Z,5.80
2022-10-11T03:03:02.015Z,5.43
2022-10-11T03:05:29.242Z,4.60
2022-10-11T03:07:56.382Z,5.47
2022-10-11T03:10:23.544Z,4.13
2022-10-11T03:12:50.802Z,4.73
2022-10-11T03:15:17.966Z,4.80
2022-10-11T03:17:45.156Z,4.47
2022-10-11T03:20:12.366Z,4.90
2022-10-11T03:22:39.732Z,4.50
2022-10-11T03:25:07.102Z,5.50
2022-10-11T03:27:34.251Z,5.43
2022-10-11T03:30:01.704Z,5.33
2022-10-11T03:32:29.433Z,5.17
2022-10-11T03:34:56.812Z,5.33
2022-10-11T03:37:23.958Z,4.77
2022-10-11T03:39:51.368Z,5.80
2022-10-11T03:42:18.592Z,5.43
2022-10-11T03:44:46.475Z,6.03
2022-10-11T03:47:13.639Z,5.80
2022-10-11T03:49:43.587Z,5.70
2022-10-11T03:52:11.638Z,5.33
2022-10-11T03:54:39.091Z,6.13
2022-10-11T03:57:06.543Z,5.80
2022-10-11T03:59:33.369Z,6.27
2022-10-11T04:02:00.758Z,6.00
2022-10-11T04:04:28.077Z,5.87
2022-10-11T04:06:54.904Z,6.43
2022-10-11T04:09:21.771Z,6.57
2022-10-11T04:11:48.594Z,6.50
2022-10-11T04:14:15.349Z,6.27
2022-10-11T04:16:42.210Z,6.20
2022-10-11T04:19:09.000Z,6.17
2022-10-11T04:21:36.071Z,6.47
2022-10-11T04:24:02.950Z,6.27
2022-10-11T04:26:30.255Z,6.50
2022-10-11T04:28:57.178Z,6.53
2022-10-11T04:31:24.137Z,6.80
2022-10-11T04:33:50.915Z,5.73
2022-10-11T04:36:18.063Z,6.20
2022-10-11T04:38:45.232Z,5.93
2022-10-11T04:41:14.239Z,5.27
2022-10-11T04:43:41.399Z,5.90
2022-10-11T04:46:09.776Z,5.30
2022-10-11T04:48:37.485Z,5.43
2022-10-11T04:51:04.719Z,6.10
2022-10-11T04:53:31.873Z,5.07
2022-10-11T04:56:00.937Z,5.60
2022-10-11T04:58:28.960Z,5.93
2022-10-11T05:00:56.505Z,6.00
2022-10-11T05:03:23.893Z,5.90
2022-10-11T05:05:51.240Z,6.07
2022-10-11T05:08:18.447Z,6.07
2022-10-11T05:10:58.713Z,6.30
2022-10-11T05:13:26.284Z,6.60
2022-10-11T05:15:53.889Z,6.33
2022-10-11T05:18:21.420Z,6.63
2022-10-11T05:20:48.656Z,7.00
2022-10-11T05:23:15.897Z,6.63
2022-10-11T05:25:43.224Z,6.33
2022-10-11T05:28:10.557Z,6.97
2022-10-11T05:30:37.805Z,6.80
2022-10-11T05:33:05.379Z,7.43
2022-10-11T05:35:32.540Z,7.80
2022-10-11T05:37:59.673Z,7.30
2022-10-11T05:40:26.873Z,7.97
2022-10-11T05:42:54.048Z,18.83
2022-10-11T05:45:21.218Z,9.10
2022-10-11T05:47:48.424Z,9.63
2022-10-11T05:50:15.676Z,7.50
2022-10-11T05:52:42.855Z,9.40
2022-10-11T05:55:10.297Z,8.83
2022-10-11T05:57:37.835Z,8.80
2022-10-11T06:00:06.148Z,10.57
2022-10-11T06:02:34.461Z,18.17
2022-10-11T06:05:01.759Z,11.30
2022-10-11T06:07:29.048Z,9.80
2022-10-11T06:09:56.193Z,9.53
2022-10-11T06:12:23.298Z,10.67
2022-10-11T06:14:50.473Z,9.30
2022-10-11T06:17:17.602Z,10.07
2022-10-11T06:19:44.753Z,9.60
2022-10-11T06:22:12.426Z,8.43
2022-10-11T06:24:39.516Z,8.87
2022-10-11T06:27:06.663Z,8.77
2022-10-11T06:29:34.020Z,8.93
2022-10-11T06:32:01.208Z,9.07
2022-10-11T06:34:28.330Z,8.87
2022-10-11T06:36:55.669Z,9.77
2022-10-11T06:39:22.807Z,9.43
2022-10-11T06:41:50.043Z,9.37
2022-10-11T06:44:17.258Z,9.93
2022-10-11T06:46:44.483Z,10.10
2022-10-11T06:49:11.681Z,10.73
2022-10-11T06:51:38.998Z,10.87
2022-10-11T06:54:06.429Z,10.53
2022-10-11T06:56:33.689Z,11.33
2022-10-11T06:59:00.927Z,10.70
2022-10-11T07:01:28.352Z,11.33
2022-10-11T07:03:56.183Z,12.23
2022-10-11T07:06:24.868Z,12.53
2022-10-11T07:08:52.274Z,11.13
2022-10-11T07:11:20.831Z,13.80
2022-10-11T07:13:58.812Z,14.53
2022-10-11T07:16:26.750Z,14.27
2022-10-11T07:18:59.825Z,12.10
2022-10-11T07:21:27.971Z,12.57
2022-10-11T07:23:55.160Z,13.87
2022-10-11T07:26:22.422Z,13.77
2022-10-11T07:28:49.683Z,14.23
2022-10-11T07:31:21.228Z,14.00
2022-10-11T07:33:48.402Z,13.70
2022-10-11T07:36:17.785Z,14.53
2022-10-11T07:38:46.194Z,14.23
2022-10-11T07:41:13.616Z,15.17
2022-10-11T07:43:43.225Z,14.30
2022-10-11T07:46:11.366Z,15.00
2022-10-11T07:48:38.971Z,14.00
2022-10-11T07:51:16.203Z,14.10
2022-10-11T07:53:44.695Z,13.47
2022-10-11T07:56:13.484Z,14.00
2022-10-11T07:58:41.603Z,14.90
2022-10-11T08:01:09.583Z,15.30
2022-10-11T08:03:37.883Z,15.83
2022-10-11T08:06:06.985Z,14.80
2022-10-11T08:08:34.525Z,15.10
2022-10-11T08:11:01.935Z,15.27
2022-10-11T08:13:29.125Z,14.87
2022-10-11T08:15:56.384Z,16.33
2022-10-11T08:18:23.650Z,15.37
2022-10-11T08:20:51.003Z,14.03
2022-10-11T08:23:19.156Z,15.17
2022-10-11T08:25:48.269Z,16.03
2022-10-11T08:28:17.755Z,15.53
2022-10-11T08:30:52.630Z,15.40
2022-10-11T08:33:20.991Z,15.87
2022-10-11T08:35:48.574Z,17.47
2022-10-11T08:38:16.052Z,17.90
2022-10-11T08:40:56.831Z,15.67
2022-10-11T08:43:41.903Z,16.83
2022-10-11T08:46:10.159Z,16.67
2022-10-11T08:48:44.140Z,16.90
2022-10-11T08:51:32.834Z,16.27
2022-10-11T08:54:21.479Z,16.30
2022-10-11T08:56:49.576Z,16.83
2022-10-11T08:59:44.328Z,15.23
2022-10-11T09:03:08.399Z,14.77
2022-10-11T09:05:44.314Z,14.97
2022-10-11T09:08:22.513Z,16.60
2022-10-11T09:11:36.053Z,14.87
2022-10-11T09:14:14.668Z,14.27
2022-10-11T09:16:47.204Z,16.37
2022-10-11T09:19:35.124Z,21.07
2022-10-11T09:22:30.441Z,13.87
2022-10-11T09:25:24.609Z,13.57
2022-10-11T09:28:03.916Z,13.67
2022-10-11T09:30:32.011Z,12.57
2022-10-11T09:33:08.184Z,13.57
2022-10-11T09:35:42.750Z,12.33
2022-10-11T09:38:15.641Z,11.63
2022-10-11T09:40:46.090Z,11.07
2022-10-11T09:43:17.455Z,11.67
2022-10-11T09:45:49.543Z,10.90
2022-10-11T09:48:22.202Z,9.73
2022-10-11T09:50:49.997Z,10.00
2022-10-11T09:53:16.889Z,11.70
2022-10-11T09:56:01.714Z,10.90
2022-10-11T09:58:34.314Z,11.47
2022-10-11T10:01:11.794Z,11.60
2022-10-11T10:03:42.279Z,10.30
2022-10-11T10:06:24.486Z,12.63
2022-10-11T10:08:51.599Z,11.17
2022-10-11T10:11:19.218Z,11.97
2022-10-11T10:13:49.705Z,11.63
2022-10-11T10:16:33.854Z,10.00
2022-10-11T10:19:02.313Z,11.27
2022-10-11T10:21:29.514Z,10.03
2022-10-11T10:23:57.828Z,9.57
2022-10-11T10:26:26.153Z,8.90
2022-10-11T10:29:05.426Z,12.50
2022-10-11T10:32:01.936Z,9.37
2022-10-11T10:34:35.339Z,9.87
2022-10-11T10:37:23.880Z,9.13
2022-10-11T10:39:56.388Z,8.97
2022-10-11T10:42:23.333Z,9.67
2022-10-11T10:44:54.584Z,10.45
2022-10-11T10:48:00.603Z,10.20
2022-10-11T10:50:55.823Z,10.13
2022-10-11T10:53:39.617Z,14.75
2022-10-11T10:56:14.813Z,12.80
2022-10-11T10:58:53.984Z,11.50
2022-10-11T11:01:27.499Z,11.13
2022-10-11T11:04:22.209Z,11.93
2022-10-11T11:07:12.429Z,13.65
2022-10-11T11:10:21.990Z,12.98
2022-10-11T11:12:56.925Z,13.85
2022-10-11T11:16:08.456Z,15.13
2022-10-11T11:18:52.034Z,15.40
2022-10-11T11:22:09.746Z,15.27
2022-10-11T11:25:07.843Z,14.90
2022-10-11T11:28:01.028Z,14.65
2022-10-11T11:30:34.463Z,11.32
2022-10-11T11:33:32.212Z,8.25
2022-10-11T11:36:04.949Z,7.15
2022-10-11T11:38:50.628Z,7.50
2022-10-11T11:41:26.142Z,6.88
2022-10-11T11:43:59.429Z,6.22
2022-10-11T11:46:35.736Z,25.98
2022-10-11T11:49:13.033Z,7.43
2022-10-11T11:51:45.135Z,8.68
2022-10-11T11:54:17.996Z,6.68
2022-10-11T11:57:15.558Z,6.07
2022-10-11T12:00:00.432Z,8.27
2022-10-11T12:02:39.476Z,8.18
2022-10-11T12:05:19.529Z,10.02
2022-10-11T12:07:56.869Z,8.07
2022-10-11T12:10:49.599Z,8.18
2022-10-11T12:13:21.172Z,8.45
2022-10-11T12:16:06.289Z,8.43
2022-10-11T12:18:38.200Z,10.40
2022-10-11T12:21:27.449Z,8.75
2022-10-11T12:24:09.876Z,6.95
2022-10-11T12:26:45.040Z,5.50
2022-10-11T12:29:24.563Z,3.78
2022-10-11T12:32:00.829Z,3.88
2022-10-11T12:34:34.515Z,4.30
2022-10-11T12:37:22.123Z,9.15
2022-10-11T12:39:59.681Z,4.50
2022-10-11T12:42:33.941Z,7.18
2022-10-11T12:45:28.704Z,4.60
2022-10-11T12:48:04.011Z,4.35
2022-10-11T12:50:58.541Z,5.60
2022-10-11T12:53:44.239Z,4.20
2022-10-11T12:56:41.973Z,3.00
2022-10-11T12:59:17.857Z,2.30
2022-10-11T13:01:53.403Z,2.28
2022-10-11T13:04:27.383Z,3.40
2022-10-11T13:06:56.730Z,2.35
2022-10-11T13:09:28.749Z,2.80
2022-10-11T13:12:05.362Z,2.20
2022-10-11T13:14:37.125Z,2.45
2022-10-11T13:17:04.289Z,4.70
2022-10-11T13:19:32.766Z,23.63
2022-10-11T13:22:16.249Z,3.28
2022-10-11T13:24:43.749Z,2.00
2022-10-11T13:27:20.555Z,1.90
2022-10-11T13:29:48.452Z,1.85
2022-10-11T13:32:22.019Z,1.58
2022-10-11T13:34:53.777Z,2.22
2022-10-11T13:37:23.334Z,12.32
2022-10-11T13:39:53.884Z,3.95
2022-10-11T13:42:29.781Z,1.70
2022-10-11T13:44:57.740Z,2.35
2022-10-11T13:47:30.284Z,1.45
2022-10-11T13:50:10.854Z,1.67
2022-10-11T13:52:56.920Z,1.70
2022-10-11T13:55:31.586Z,3.00
2022-10-11T13:58:01.564Z,2.58
2022-10-11T14:00:33.067Z,1.83
2022-10-11T14:03:03.758Z,2.58
2022-10-11T14:05:43.043Z,1.50
2022-10-11T14:08:34.774Z,1.38
2022-10-11T14:11:06.315Z,1.88
2022-10-11T14:13:50.031Z,4.70
2022-10-11T14:16:19.762Z,3.05
2022-10-11T14:18:46.560Z,2.40
2022-10-11T14:21:19.549Z,1.80
2022-10-11T14:23:47.448Z,1.38
2022-10-11T14:26:18.739Z,1.42
2022-10-11T14:28:48.801Z,1.92
2022-10-11T14:31:15.679Z,1.35
2022-10-11T14:33:42.478Z,2.25
2022-10-11T14:36:10.359Z,2.42
2022-10-11T14:38:37.318Z,2.15
2022-10-11T14:41:04.219Z,1.80
2022-10-11T14:43:31.019Z,1.40
2022-10-11T14:45:57.817Z,2.08
2022-10-11T14:48:50.373Z,2.75
2022-10-11T14:51:14.092Z,1.77
2022-10-11T14:53:46.291Z,3.05
2022-10-11T14:56:18.922Z,2.10
2022-10-11T14:58:48.102Z,1.88
2022-10-11T15:01:16.027Z,1.85
2022-10-11T15:03:43.002Z,1.35
2022-10-11T15:06:25.120Z,2.00
2022-10-11T15:08:52.004Z,0.95
2022-10-11T15:11:21.744Z,1.75
2022-10-11T15:13:49.344Z,1.90
2022-10-11T15:16:20.181Z,1.77
2022-10-11T15:18:50.911Z,25.67
2022-10-11T15:21:23.424Z,5.35
2022-10-11T15:23:53.235Z,4.38
2022-10-11T15:26:23.962Z,2.33
2022-10-11T15:28:51.706Z,5.10
2022-10-11T15:31:18.850Z,3.00
2022-10-11T15:33:45.931Z,7.30
2022-10-11T15:36:15.432Z,2.00
2022-10-11T15:38:42.731Z,2.00
2022-10-11T15:41:15.704Z,2.17
2022-10-11T15:43:44.290Z,3.03
2022-10-11T15:46:17.732Z,1.92
2022-10-11T15:48:45.554Z,1.95
2022-10-11T15:51:13.321Z,3.80
2022-10-11T15:53:40.457Z,1.92
2022-10-11T15:56:12.041Z,1.85
2022-10-11T15:58:40.878Z,1.60
2022-10-11T16:01:12.298Z,1.77
2022-10-11T16:03:39.627Z,2.35
2022-10-11T16:06:07.748Z,9.43
2022-10-11T16:08:35.160Z,9.50
2022-10-11T16:11:02.582Z,5.53
2022-10-11T16:13:29.951Z,6.32
2022-10-11T16:15:56.836Z,5.07
2022-10-11T16:18:24.023Z,5.32
2022-10-11T16:20:52.446Z,4.28
2022-10-11T16:23:21.880Z,12.43
2022-10-11T16:25:57.988Z,5.28
2022-10-11T16:28:25.773Z,7.65
2022-10-11T16:30:53.117Z,5.10
2022-10-11T16:33:20.172Z,5.50
2022-10-11T16:35:47.015Z,11.88
2022-10-11T16:38:14.419Z,16.35
2022-10-11T16:40:42.704Z,9.63
2022-10-11T16:43:10.215Z,14.43
2022-10-11T16:45:37.544Z,6.75
2022-10-11T16:48:05.044Z,10.80
2022-10-11T16:50:36.799Z,15.60
2022-10-11T16:53:06.331Z,10.27
2022-10-11T16:55:33.488Z,11.45
2022-10-11T16:58:00.616Z,9.63
2022-10-11T17:00:27.831Z,8.50
2022-10-11T17:02:55.246Z,5.33
2022-10-11T17:05:22.366Z,5.43
2022-10-11T17:07:49.156Z,4.83
2022-10-11T17:10:15.969Z,5.00
2022-10-11T17:12:47.718Z,6.63
2022-10-11T17:15:16.870Z,7.40
2022-10-11T17:17:43.691Z,6.07
2022-10-11T17:20:10.864Z,4.50
2022-10-11T17:22:37.647Z,5.80
2022-10-11T17:25:05.598Z,4.60
2022-10-11T17:27:32.435Z,4.40
2022-10-11T17:29:59.289Z,4.37
2022-10-11T17:32:26.131Z,4.10
2022-10-11T17:34:53.892Z,6.20
2022-10-11T17:37:20.976Z,7.77
2022-10-11T17:39:48.068Z,5.93
2022-10-11T17:42:15.243Z,5.60
2022-10-11T17:44:46.247Z,6.70
2022-10-11T17:47:14.305Z,6.10
2022-10-11T17:49:41.394Z,5.77
2022-10-11T17:52:08.182Z,6.17
2022-10-11T17:54:35.282Z,5.00
2022-10-11T17:57:02.852Z,5.80
2022-10-11T17:59:32.203Z,5.90
2022-10-11T18:01:59.419Z,4.77
2022-10-11T18:04:30.251Z,6.43
2022-10-11T18:06:57.459Z,8.43
2022-10-11T18:09:25.145Z,5.70
2022-10-11T18:11:52.519Z,6.83
2022-10-11T18:14:20.001Z,6.13
2022-10-11T18:16:47.220Z,6.53
2022-10-11T18:19:14.633Z,7.27
2022-10-11T18:21:42.094Z,6.53
2022-10-11T18:24:12.024Z,7.50
2022-10-11T18:26:39.866Z,8.43
2022-10-11T18:29:07.306Z,8.27
2022-10-11T18:31:35.589Z,10.03
2022-10-11T18:34:04.311Z,9.43
2022-10-11T18:36:32.008Z,13.03
2022-10-11T18:39:01.168Z,9.97
2022-10-11T18:41:30.765Z,7.77
2022-10-11T18:44:02.284Z,7.13
2022-10-11T18:46:30.148Z,7.13
2022-10-11T18:48:58.365Z,7.60
2022-10-11T18:51:36.459Z,14.50
2022-10-11T18:54:04.316Z,13.27
2022-10-11T18:56:32.614Z,11.53
2022-10-11T18:58:59.728Z,8.00
2022-10-11T19:01:29.653Z,6.70
2022-10-11T19:03:59.158Z,7.73
2022-10-11T19:06:35.225Z,7.60
2022-10-11T19:09:03.720Z,8.43
2022-10-11T19:11:30.696Z,7.40
2022-10-11T19:14:03.405Z,6.63
2022-10-11T19:16:30.799Z,7.33
2022-10-11T19:18:58.634Z,9.13
2022-10-11T19:21:26.545Z,7.50
2022-10-11T19:24:02.445Z,8.27
2022-10-11T19:26:33.470Z,8.20
2022-10-11T19:29:05.561Z,8.77
2022-10-11T19:31:34.084Z,8.47
2022-10-11T19:34:01.408Z,7.67
2022-10-11T19:36:32.576Z,7.63
2022-10-11T19:39:03.023Z,8.63
2022-10-11T19:41:30.265Z,8.43
2022-10-11T19:44:00.028Z,9.53
2022-10-11T19:46:49.971Z,8.80
2022-10-11T19:49:17.577Z,9.20
2022-10-11T19:51:44.799Z,8.27
2022-10-11T19:54:13.979Z,13.97
2022-10-11T19:56:42.464Z,14.33
2022-10-11T19:59:11.098Z,13.57
2022-10-11T20:01:38.554Z,14.27
2022-10-11T20:04:08.188Z,11.50
2022-10-11T20:06:38.769Z,9.70
2022-10-11T20:11:54.423Z,9.27
2022-10-11T20:14:21.645Z,7.90
2022-10-11T20:16:50.601Z,8.77
2022-10-11T20:19:17.930Z,9.37
2022-10-11T20:21:45.518Z,8.10
2022-10-11T20:24:12.810Z,6.57
2022-10-11T20:26:40.319Z,7.63
2022-10-11T20:29:07.706Z,7.23
2022-10-11T20:31:40.755Z,7.03
2022-10-11T20:34:08.023Z,7.70
2022-10-11T20:36:36.009Z,8.27
2022-10-11T20:39:04.268Z,9.93
2022-10-11T20:41:32.661Z,9.50
2022-10-11T20:44:01.714Z,10.10
2022-10-11T20:46:32.765Z,8.60
2022-10-11T20:49:02.097Z,8.80
2022-10-11T20:51:33.859Z,9.00
2022-10-11T20:54:02.148Z,8.27
2022-10-11T20:56:29.857Z,8.43
2022-10-11T20:58:58.043Z,8.50
2022-10-11T21:01:26.671Z,7.70
2022-10-11T21:03:54.301Z,7.80
2022-10-11T21:06:21.529Z,8.00
2022-10-11T21:08:48.693Z,8.10
2022-10-11T21:11:15.985Z,13.33
2022-10-11T21:13:43.295Z,8.83
2022-10-11T21:16:14.934Z,8.17
2022-10-11T21:18:42.168Z,15.70
2022-10-11T21:21:10.669Z,10.03
2022-10-11T21:23:37.881Z,11.70
2022-10-11T21:26:06.222Z,11.07
2022-10-11T21:28:33.502Z,8.40
2022-10-11T21:31:07.959Z,7.93
2022-10-11T21:33:35.760Z,7.50
2022-10-11T21:36:14.818Z,7.20
2022-10-11T21:38:42.531Z,7.33
2022-10-11T21:41:11.160Z,7.33
2022-10-11T21:43:38.498Z,7.23
2022-10-11T21:47:01.072Z,7.30
2022-10-11T21:49:19.908Z,8.63
2022-10-11T21:51:47.305Z,12.20
2022-10-11T21:54:14.562Z,10.97
2022-10-11T21:56:41.821Z,8.03
2022-10-11T21:59:12.079Z,7.40
2022-10-11T22:01:40.318Z,8.40
2022-10-11T22:04:07.666Z,6.93
2022-10-11T22:06:35.316Z,7.03
2022-10-11T22:09:03.732Z,7.50
2022-10-11T22:11:31.215Z,7.13
2022-10-11T22:13:58.665Z,7.20
2022-10-11T22:16:25.872Z,6.73
2022-10-11T22:18:56.180Z,5.83
2022-10-11T22:21:24.177Z,6.77
2022-10-11T22:23:52.412Z,6.87
2022-10-11T22:26:20.931Z,6.50
2022-10-11T22:28:48.589Z,7.30
2022-10-11T22:31:16.481Z,6.33
2022-10-11T22:36:16.388Z,6.40
2022-10-11T22:38:44.024Z,6.83
2022-10-11T22:41:11.674Z,6.63
2022-10-11T22:43:38.873Z,6.30
2022-10-11T22:46:06.641Z,7.10
2022-10-11T22:48:33.812Z,8.30
2022-10-11T22:51:01.195Z,8.43
2022-10-11T22:53:28.417Z,6.77
2022-10-11T22:55:55.566Z,6.63
2022-10-11T22:58:23.016Z,6.70
2022-10-11T23:00:50.376Z,7.63
2022-10-11T23:03:18.124Z,7.33
2022-10-11T23:05:53.935Z,6.63
2022-10-11T23:08:21.273Z,7.53
2022-10-11T23:10:48.412Z,7.43
2022-10-11T23:13:17.181Z,6.63
2022-10-11T23:15:44.429Z,6.53
2022-10-11T23:18:11.866Z,6.50
2022-10-11T23:20:39.701Z,6.83
2022-10-11T23:23:07.221Z,6.37
2022-10-11T23:25:34.468Z,6.73
2022-10-11T23:28:02.014Z,6.67
2022-10-11T23:30:29.476Z,6.73
2022-10-11T23:32:56.647Z,7.20
2022-10-11T23:35:24.092Z,7.50
2022-10-11T23:37:51.225Z,7.10
2022-10-11T23:40:18.364Z,7.57
2022-10-11T23:42:45.501Z,7.40
2022-10-11T23:45:12.676Z,7.20
2022-10-11T23:47:40.423Z,6.90
2022-10-11T23:50:08.464Z,7.20
2022-10-11T23:52:35.582Z,7.33
2022-10-11T23:55:02.751Z,7.43
2022-10-11T23:57:29.915Z,6.60
2022-10-11T23:59:57.077Z,7.53
